Fort Rice, North Dakota
Current Conditions -  °F | °C
As of 11:15 AM on Friday 24 Oct 2014 (Local Time) from KY19 Reporting Station
Broken Clouds Broken Clouds  
Wind Chill: 61°   Ceiling: 11000
Heat Index: 61°   Visibility: 10mi
Dew Point: 37°   Wind: 12mph
Humidity: 42%   Direction: 290°WNW
Pressure: 29.9"   Gusts: NA
Location:  46.7289°N, 100.983°W
Report Text: KY19 241615Z AUTO 29010KT 10SM BKN110 16/03 A2990 RMK AO2
Loading
Personal Weather Stations






























Interactive Weather Map
Tropical Storm Tracking
New forecast layout! Learn more

10-Day Weather Forecast

Advertisements
Track Severe Weather on mobile